createdAt,value
2022-09-15T00:01:20.994Z,42.50
2022-09-15T00:06:23.019Z,42.87
2022-09-15T00:11:28.370Z,42.36
2022-09-15T00:16:32.459Z,42.30
2022-09-15T00:21:37.630Z,42.69
2022-09-15T00:26:39.580Z,42.47
2022-09-15T00:31:41.411Z,42.45
2022-09-15T00:36:43.213Z,42.25
2022-09-15T00:41:45.149Z,42.42
2022-09-15T00:47:09.329Z,42.69
2022-09-15T00:52:24.254Z,42.53
2022-09-15T00:57:31.865Z,42.46
2022-09-15T01:02:36.011Z,42.61
2022-09-15T01:07:40.016Z,42.42
2022-09-15T01:12:42.431Z,42.35
2022-09-15T01:17:51.066Z,42.42
2022-09-15T01:23:14.293Z,42.36
2022-09-15T01:28:18.863Z,42.48
2022-09-15T01:33:37.814Z,42.40
2022-09-15T01:38:46.084Z,42.34
2022-09-15T01:44:05.709Z,42.32
2022-09-15T01:49:11.523Z,42.42
2022-09-15T01:54:15.814Z,42.20
2022-09-15T01:59:17.728Z,42.17
2022-09-15T02:04:31.516Z,42.21
2022-09-15T02:09:43.062Z,42.11
2022-09-15T02:14:58.082Z,42.04
2022-09-15T02:20:10.341Z,41.91
2022-09-15T02:25:20.892Z,42.19
2022-09-15T02:30:23.110Z,41.95
2022-09-15T02:35:27.049Z,42.10
2022-09-15T02:40:30.630Z,41.78
2022-09-15T02:45:32.687Z,41.99
2022-09-15T02:50:34.448Z,41.93
2022-09-15T02:55:36.435Z,41.67
2022-09-15T03:00:39.368Z,42.00
2022-09-15T03:05:41.129Z,41.75
2022-09-15T03:10:42.927Z,41.95
2022-09-15T03:15:45.039Z,41.74
2022-09-15T03:20:46.819Z,41.74
2022-09-15T03:25:48.579Z,41.92
2022-09-15T03:30:50.518Z,41.78
2022-09-15T03:35:53.141Z,41.71
2022-09-15T03:41:02.353Z,41.66
2022-09-15T03:46:06.308Z,41.64
2022-09-15T03:51:11.027Z,42.21
2022-09-15T03:56:33.248Z,41.88
2022-09-15T04:01:36.202Z,42.03
2022-09-15T04:06:38.536Z,41.76
2022-09-15T04:11:40.869Z,42.01
2022-09-15T04:16:42.983Z,41.80
2022-09-15T04:21:46.037Z,41.85
2022-09-15T04:26:47.806Z,42.00
2022-09-15T04:31:50.690Z,41.74
2022-09-15T04:36:53.201Z,41.88
2022-09-15T04:41:55.016Z,41.65
2022-09-15T04:46:56.910Z,41.61
2022-09-15T04:51:58.840Z,41.46
2022-09-15T04:57:00.747Z,41.76
2022-09-15T05:02:03.388Z,41.34
2022-09-15T05:07:05.269Z,41.51
2022-09-15T05:12:07.239Z,41.69
2022-09-15T05:17:09.161Z,41.52
2022-09-15T05:22:10.928Z,41.52
2022-09-15T05:27:12.876Z,41.55
2022-09-15T05:32:14.828Z,41.64
2022-09-15T05:37:16.790Z,41.41
2022-09-15T05:42:19.404Z,41.31
2022-09-15T05:47:21.198Z,41.59
2022-09-15T05:52:23.190Z,41.56
2022-09-15T05:57:24.996Z,41.50
2022-09-15T06:02:27.015Z,41.48
2022-09-15T06:07:29.148Z,41.46
2022-09-15T06:12:30.935Z,41.54
2022-09-15T06:17:33.366Z,41.44
2022-09-15T06:22:35.294Z,41.49
2022-09-15T06:27:37.133Z,41.47
2022-09-15T06:32:39.358Z,41.62
2022-09-15T06:37:41.159Z,41.25
2022-09-15T06:42:43.098Z,41.46
2022-09-15T06:47:45.127Z,41.11
2022-09-15T06:52:47.102Z,41.36
2022-09-15T06:57:50.024Z,41.68
2022-09-15T07:02:51.879Z,41.66
2022-09-15T07:07:53.765Z,41.31
2022-09-15T07:12:56.099Z,41.45
2022-09-15T07:17:59.484Z,41.56
2022-09-15T07:23:01.387Z,41.58
2022-09-15T07:28:04.188Z,41.47
2022-09-15T07:33:11.155Z,41.61
2022-09-15T07:38:12.818Z,41.64
2022-09-15T07:43:14.625Z,42.05
2022-09-15T07:48:16.361Z,41.67
2022-09-15T07:53:18.517Z,41.95
2022-09-15T07:58:21.543Z,42.01
2022-09-15T08:03:23.443Z,41.59
2022-09-15T08:08:25.613Z,41.91
2022-09-15T08:13:29.123Z,42.19
2022-09-15T08:18:31.259Z,42.68
2022-09-15T08:23:33.926Z,42.43
2022-09-15T08:28:36.256Z,42.16
2022-09-15T08:33:43.216Z,42.26
2022-09-15T08:38:47.171Z,42.09
2022-09-15T08:44:13.548Z,42.03
2022-09-15T08:49:50.482Z,42.33
2022-09-15T08:54:57.392Z,42.04
2022-09-15T08:59:59.919Z,42.03
2022-09-15T09:05:10.303Z,41.96
2022-09-15T09:10:46.262Z,41.94
2022-09-15T09:15:57.295Z,41.91
2022-09-15T09:21:09.109Z,41.71
2022-09-15T09:26:13.172Z,41.77
2022-09-15T09:31:20.329Z,41.63
2022-09-15T09:36:22.169Z,41.67
2022-09-15T09:41:28.848Z,41.60
2022-09-15T09:46:32.005Z,41.56
2022-09-15T09:51:51.982Z,41.79
2022-09-15T09:56:55.723Z,41.67
2022-09-15T10:02:27.632Z,41.71
2022-09-15T10:07:33.671Z,41.77
2022-09-15T10:12:41.545Z,41.58
2022-09-15T10:17:45.908Z,41.40
2022-09-15T10:22:48.155Z,41.44
2022-09-15T10:28:14.700Z,41.36
2022-09-15T10:33:28.888Z,41.60
2022-09-15T10:38:37.930Z,41.56
2022-09-15T10:44:04.345Z,41.36
2022-09-15T10:49:27.727Z,41.44
2022-09-15T10:54:32.357Z,41.38
2022-09-15T10:59:48.238Z,41.52
2022-09-15T11:05:09.654Z,41.37
2022-09-15T11:10:16.788Z,41.86
2022-09-15T11:15:40.833Z,41.59
2022-09-15T11:20:48.201Z,41.46
2022-09-15T11:25:57.080Z,41.78
2022-09-15T11:31:04.175Z,41.69
2022-09-15T11:36:21.559Z,42.05
2022-09-15T11:41:36.640Z,41.58
2022-09-15T11:46:50.814Z,41.77
2022-09-15T11:52:31.284Z,41.63
2022-09-15T11:57:43.699Z,41.81
2022-09-15T12:03:24.280Z,41.71
2022-09-15T12:08:53.757Z,41.49
2022-09-15T12:13:56.209Z,41.69
2022-09-15T12:19:22.562Z,41.80
2022-09-15T12:25:05.879Z,41.88
2022-09-15T12:30:40.960Z,41.66
2022-09-15T12:35:43.413Z,41.34
2022-09-15T12:40:45.333Z,41.80
2022-09-15T12:45:57.392Z,41.57
2022-09-15T12:51:04.341Z,41.49
2022-09-15T12:56:11.873Z,41.59
2022-09-15T13:01:22.957Z,40.98
2022-09-15T13:06:35.377Z,40.54
2022-09-15T13:11:39.727Z,40.69
2022-09-15T13:16:41.701Z,40.23
2022-09-15T13:21:57.141Z,40.20
2022-09-15T13:26:59.602Z,39.97
2022-09-15T13:32:21.714Z,39.80
2022-09-15T13:38:20.257Z,39.70
2022-09-15T13:43:41.321Z,39.63
2022-09-15T13:48:54.976Z,39.41
2022-09-15T13:54:16.282Z,39.92
2022-09-15T13:59:38.307Z,39.66
2022-09-15T14:04:40.288Z,39.57
2022-09-15T14:09:47.620Z,39.50
2022-09-15T14:14:55.833Z,39.67
2022-09-15T14:20:01.943Z,39.40
2022-09-15T14:25:14.614Z,38.85
2022-09-15T14:30:26.269Z,38.88
2022-09-15T14:35:39.670Z,38.32
2022-09-15T14:40:41.511Z,38.47
2022-09-15T14:45:54.565Z,38.54
2022-09-15T14:51:07.477Z,38.08
2022-09-15T14:56:14.957Z,38.34
2022-09-15T15:01:19.315Z,38.60
2022-09-15T15:06:38.815Z,38.15
2022-09-15T15:11:42.232Z,38.04
2022-09-15T15:16:58.251Z,38.11
2022-09-15T15:22:12.359Z,37.97
2022-09-15T15:27:54.281Z,37.73
2022-09-15T15:32:58.405Z,37.26
2022-09-15T15:38:03.213Z,38.41
2022-09-15T15:43:26.597Z,39.07
2022-09-15T15:48:38.322Z,39.14
2022-09-15T15:53:41.279Z,39.26
2022-09-15T15:58:43.117Z,39.21
2022-09-15T16:03:45.500Z,39.53
2022-09-15T16:08:47.243Z,39.50
2022-09-15T16:13:49.010Z,39.50
2022-09-15T16:18:51.207Z,40.04
2022-09-15T16:23:53.425Z,40.60
2022-09-15T16:28:55.272Z,40.15
2022-09-15T16:33:57.087Z,41.02
2022-09-15T16:38:58.947Z,41.19
2022-09-15T16:44:02.739Z,41.38
2022-09-15T16:49:04.738Z,41.16
2022-09-15T16:54:15.837Z,41.13
2022-09-15T16:59:18.152Z,40.98
2022-09-15T17:04:20.380Z,41.21
2022-09-15T17:09:22.193Z,41.39
2022-09-15T17:14:24.269Z,41.41
2022-09-15T17:19:26.494Z,41.12
2022-09-15T17:24:28.608Z,41.43
2022-09-15T17:29:30.701Z,41.44
2022-09-15T17:34:32.644Z,39.94
2022-09-15T17:39:35.662Z,38.84
2022-09-15T17:44:37.826Z,38.50
2022-09-15T17:49:39.854Z,38.16
2022-09-15T17:54:41.794Z,38.12
2022-09-15T17:59:43.887Z,38.07
2022-09-15T18:04:46.922Z,38.06
2022-09-15T18:09:48.683Z,37.64
2022-09-15T18:14:50.341Z,37.62
2022-09-15T18:19:52.586Z,37.26
2022-09-15T18:24:54.331Z,37.00
2022-09-15T18:29:56.313Z,37.24
2022-09-15T18:34:58.383Z,37.01
2022-09-15T18:40:00.445Z,36.97
2022-09-15T18:45:02.984Z,36.92
2022-09-15T18:50:06.825Z,36.97
2022-09-15T18:55:11.961Z,36.95
2022-09-15T19:00:17.228Z,36.97
2022-09-15T19:05:19.321Z,36.98
2022-09-15T19:10:21.969Z,36.81
2022-09-15T19:15:24.100Z,36.91
2022-09-15T19:20:25.899Z,36.94
2022-09-15T19:25:27.915Z,36.85
2022-09-15T19:30:30.153Z,36.84
2022-09-15T19:35:31.995Z,36.84
2022-09-15T19:40:33.920Z,38.15
2022-09-15T19:45:35.765Z,37.66
2022-09-15T19:50:39.317Z,37.31
2022-09-15T19:55:41.848Z,37.26
2022-09-15T20:00:43.798Z,37.48
2022-09-15T20:05:53.861Z,38.18
2022-09-15T20:10:55.702Z,38.91
2022-09-15T20:16:00.220Z,38.38
2022-09-15T20:21:08.461Z,38.40
2022-09-15T20:26:13.293Z,38.36
2022-09-15T20:31:26.509Z,38.16
2022-09-15T20:36:34.226Z,38.13
2022-09-15T20:41:36.150Z,37.87
2022-09-15T20:46:37.941Z,38.04
2022-09-15T20:51:39.693Z,37.99
2022-09-15T20:56:41.365Z,38.26
2022-09-15T21:01:43.785Z,38.20
2022-09-15T21:06:45.698Z,38.25
2022-09-15T21:11:52.713Z,38.08
2022-09-15T21:16:55.159Z,37.96
2022-09-15T21:21:58.739Z,38.67
2022-09-15T21:27:18.938Z,38.57
2022-09-15T21:32:21.371Z,40.01
2022-09-15T21:37:26.681Z,40.75
2022-09-15T21:42:28.896Z,40.74
2022-09-15T21:47:31.613Z,40.58
2022-09-15T21:52:33.654Z,40.48
2022-09-15T21:57:35.668Z,40.51
2022-09-15T22:02:37.373Z,41.22
2022-09-15T22:07:39.716Z,41.21
2022-09-15T22:12:41.450Z,41.11
2022-09-15T22:17:43.314Z,40.98
2022-09-15T22:22:46.152Z,40.68
2022-09-15T22:27:48.112Z,40.83
2022-09-15T22:32:50.063Z,41.00
2022-09-15T22:37:51.950Z,40.64
2022-09-15T22:42:53.871Z,40.56
2022-09-15T22:47:56.119Z,40.60
2022-09-15T22:52:57.895Z,40.68
2022-09-15T22:57:59.691Z,40.28
2022-09-15T23:03:01.760Z,40.49
2022-09-15T23:08:04.004Z,40.53
2022-09-15T23:13:05.906Z,40.47
2022-09-15T23:18:07.819Z,40.50
2022-09-15T23:23:09.654Z,40.29
2022-09-15T23:28:11.532Z,40.38
2022-09-15T23:33:13.363Z,40.36
2022-09-15T23:38:15.662Z,40.42
2022-09-15T23:43:18.156Z,40.21
2022-09-15T23:48:20.949Z,40.68
2022-09-15T23:53:24.350Z,40.32
2022-09-15T23:58:26.549Z,40.24
